createdAt,value
2018-06-13T00:01:31.953Z,93.60
2018-06-13T00:04:01.202Z,93.50
2018-06-13T00:06:30.292Z,93.80
2018-06-13T00:08:59.280Z,93.70
2018-06-13T00:11:28.342Z,93.60
2018-06-13T00:13:57.570Z,93.90
2018-06-13T00:16:26.612Z,93.90
2018-06-13T00:18:55.810Z,93.90
2018-06-13T00:21:24.914Z,93.90
2018-06-13T00:23:53.978Z,93.80
2018-06-13T00:26:23.091Z,93.80
2018-06-13T00:28:52.118Z,93.60
2018-06-13T00:31:21.245Z,93.80
2018-06-13T00:33:50.223Z,93.60
2018-06-13T00:36:19.334Z,93.50
2018-06-13T00:38:48.481Z,93.60
2018-06-13T00:41:17.588Z,93.70
2018-06-13T00:43:46.612Z,93.50
2018-06-13T00:46:15.627Z,93.60
2018-06-13T00:48:44.793Z,93.60
2018-06-13T00:51:13.771Z,93.70
2018-06-13T00:53:42.906Z,93.70
2018-06-13T00:56:22.761Z,93.80
2018-06-13T00:58:51.840Z,93.80
2018-06-13T01:01:21.007Z,93.90
2018-06-13T01:03:50.060Z,93.80
2018-06-13T01:06:19.101Z,93.70
2018-06-13T01:08:48.107Z,93.70
2018-06-13T01:11:17.185Z,93.70
2018-06-13T01:13:46.345Z,93.40
2018-06-13T01:16:15.369Z,93.30
2018-06-13T01:18:44.448Z,93.40
2018-06-13T01:21:13.427Z,93.50
2018-06-13T01:23:42.501Z,93.50
2018-06-13T01:26:11.595Z,93.60
2018-06-13T01:28:40.718Z,93.70
2018-06-13T01:31:09.755Z,93.80
2018-06-13T01:33:38.811Z,93.90
2018-06-13T01:36:08.160Z,93.90
2018-06-13T01:38:37.272Z,94.00
2018-06-13T01:41:07.536Z,94.20
2018-06-13T01:43:36.840Z,94.10
2018-06-13T01:46:07.461Z,94.00
2018-06-13T01:48:36.493Z,94.00
2018-06-13T01:51:05.613Z,93.80
2018-06-13T01:53:34.636Z,94.00
2018-06-13T01:56:03.950Z,94.10
2018-06-13T01:58:32.957Z,94.00
2018-06-13T02:01:02.820Z,93.90
2018-06-13T02:03:31.858Z,93.80
2018-06-13T02:06:00.840Z,93.70
2018-06-13T02:08:29.984Z,93.60
2018-06-13T02:10:59.089Z,93.50
2018-06-13T02:13:28.141Z,93.50
2018-06-13T02:15:57.234Z,93.70
2018-06-13T02:18:26.266Z,93.90
2018-06-13T02:20:55.316Z,93.60
2018-06-13T02:23:24.346Z,93.70
2018-06-13T02:25:53.513Z,93.50
2018-06-13T02:28:22.715Z,93.70
2018-06-13T02:30:51.803Z,93.80
2018-06-13T02:33:20.812Z,93.80
2018-06-13T02:35:49.798Z,93.80
2018-06-13T02:38:18.821Z,93.80
2018-06-13T02:40:47.903Z,93.70
2018-06-13T02:43:17.059Z,93.60
2018-06-13T02:45:46.438Z,93.40
2018-06-13T02:48:15.535Z,93.50
2018-06-13T02:50:44.552Z,93.50
2018-06-13T02:53:13.656Z,93.50
2018-06-13T02:55:42.708Z,93.60
2018-06-13T02:58:11.830Z,93.50
2018-06-13T03:00:40.902Z,93.60
2018-06-13T03:03:09.985Z,93.60
2018-06-13T03:05:38.953Z,93.60
2018-06-13T03:08:08.997Z,93.60
2018-06-13T03:10:38.049Z,93.90
2018-06-13T03:13:09.266Z,93.60
2018-06-13T03:15:38.621Z,93.60
2018-06-13T03:18:07.827Z,93.50
2018-06-13T03:20:36.805Z,93.40
2018-06-13T03:23:05.957Z,93.50
2018-06-13T03:25:34.951Z,93.60
2018-06-13T03:28:04.010Z,93.60
2018-06-13T03:30:33.033Z,93.50
2018-06-13T03:33:02.164Z,93.50
2018-06-13T03:35:31.283Z,93.50
2018-06-13T03:38:00.275Z,93.60
2018-06-13T03:40:29.268Z,93.80
2018-06-13T03:42:58.368Z,93.90
2018-06-13T03:45:27.452Z,93.90
2018-06-13T03:47:56.609Z,93.80
2018-06-13T03:50:25.643Z,93.90
2018-06-13T03:52:54.644Z,93.70
2018-06-13T03:55:23.782Z,93.70
2018-06-13T03:57:52.852Z,93.60
2018-06-13T04:00:21.972Z,93.40
2018-06-13T04:02:51.103Z,93.50
2018-06-13T04:05:20.186Z,93.40
2018-06-13T04:07:49.263Z,93.10
2018-06-13T04:10:18.272Z,93.00
2018-06-13T04:12:47.375Z,92.60
2018-06-13T04:15:16.467Z,93.10
2018-06-13T04:17:45.586Z,93.10
2018-06-13T04:20:14.569Z,93.30
2018-06-13T04:22:43.706Z,93.20
2018-06-13T04:25:12.941Z,93.10
2018-06-13T04:27:41.987Z,93.10
2018-06-13T04:30:11.109Z,93.20
2018-06-13T04:32:40.172Z,93.20
2018-06-13T04:35:09.200Z,93.30
2018-06-13T04:37:38.320Z,93.30
2018-06-13T04:40:07.394Z,92.90
2018-06-13T04:42:36.456Z,92.80
2018-06-13T04:45:05.671Z,92.90
2018-06-13T04:47:34.810Z,93.00
2018-06-13T04:50:04.007Z,93.10
2018-06-13T04:52:33.099Z,92.90
2018-06-13T04:55:02.228Z,92.90
2018-06-13T04:57:31.441Z,93.00
2018-06-13T05:00:00.480Z,93.00
2018-06-13T05:02:29.626Z,93.00
2018-06-13T05:04:58.674Z,93.40
2018-06-13T05:07:28.006Z,93.30
2018-06-13T05:09:57.069Z,93.00
2018-06-13T05:12:26.233Z,92.90
2018-06-13T05:14:55.413Z,92.60
2018-06-13T05:17:24.691Z,92.70
2018-06-13T05:19:54.100Z,92.80
2018-06-13T05:22:23.132Z,93.10
2018-06-13T05:24:52.324Z,93.10
2018-06-13T05:27:21.904Z,93.10
2018-06-13T05:29:51.144Z,92.90
2018-06-13T05:32:20.267Z,93.00
2018-06-13T05:34:49.418Z,93.00
2018-06-13T05:37:18.700Z,93.30
2018-06-13T05:39:47.801Z,93.10
2018-06-13T05:42:16.925Z,93.50
2018-06-13T05:44:46.673Z,93.00
2018-06-13T05:47:15.869Z,93.10
2018-06-13T05:49:45.082Z,93.30
2018-06-13T05:52:14.616Z,93.50
2018-06-13T05:54:43.803Z,93.00
2018-06-13T05:57:12.911Z,93.10
2018-06-13T05:59:42.035Z,93.50
2018-06-13T06:02:11.212Z,93.50
2018-06-13T06:04:40.728Z,93.40
2018-06-13T06:07:09.858Z,92.60
2018-06-13T06:09:39.247Z,92.50
2018-06-13T06:12:08.469Z,92.50
2018-06-13T06:14:37.616Z,92.50
2018-06-13T06:17:06.862Z,92.60
2018-06-13T06:19:35.974Z,93.10
2018-06-13T06:22:05.127Z,92.80
2018-06-13T06:24:34.342Z,92.70
2018-06-13T06:27:03.489Z,93.20
2018-06-13T06:29:32.814Z,93.00
2018-06-13T06:32:02.068Z,93.00
2018-06-13T06:34:31.387Z,93.20
2018-06-13T06:37:00.510Z,93.30
2018-06-13T06:39:30.295Z,93.20
2018-06-13T06:41:59.506Z,93.10
2018-06-13T06:44:28.615Z,93.10
2018-06-13T06:46:57.783Z,92.20
2018-06-13T06:49:27.079Z,92.80
2018-06-13T06:51:56.199Z,92.90
2018-06-13T06:54:25.294Z,92.80
2018-06-13T06:56:54.699Z,92.90
2018-06-13T06:59:24.407Z,92.40
2018-06-13T07:01:53.904Z,92.40
2018-06-13T07:04:24.122Z,92.80
2018-06-13T07:06:53.495Z,92.50
2018-06-13T07:09:22.786Z,93.30
2018-06-13T07:11:52.089Z,93.10
2018-06-13T07:14:22.348Z,93.50
2018-06-13T07:16:51.422Z,93.70
2018-06-13T07:19:21.247Z,92.90
2018-06-13T07:21:50.523Z,92.60
2018-06-13T07:24:19.723Z,92.70
2018-06-13T07:26:48.946Z,92.90
2018-06-13T07:29:18.084Z,92.60
2018-06-13T07:31:47.332Z,92.70
2018-06-13T07:34:16.533Z,92.60
2018-06-13T07:36:45.702Z,92.70
2018-06-13T07:39:14.965Z,92.60
2018-06-13T07:41:44.105Z,92.80
2018-06-13T07:44:13.181Z,93.00
2018-06-13T07:46:42.954Z,92.80
2018-06-13T07:49:12.320Z,92.60
2018-06-13T07:51:41.512Z,92.70
2018-06-13T07:54:10.819Z,92.80
2018-06-13T07:56:40.240Z,92.70
2018-06-13T07:59:10.534Z,92.80
2018-06-13T08:01:40.503Z,92.60
2018-06-13T08:04:09.635Z,92.70
2018-06-13T08:06:38.976Z,93.30
2018-06-13T08:09:08.672Z,93.30
2018-06-13T08:11:37.876Z,93.20
2018-06-13T08:14:07.059Z,93.50
2018-06-13T08:16:36.155Z,93.20
2018-06-13T08:19:05.243Z,92.90
2018-06-13T08:21:34.301Z,92.90
2018-06-13T08:24:04.533Z,92.90
2018-06-13T08:26:33.707Z,92.80
2018-06-13T08:29:02.825Z,93.00
2018-06-13T08:31:32.690Z,92.70
2018-06-13T08:34:01.989Z,92.00
2018-06-13T08:36:31.262Z,92.20
2018-06-13T08:39:00.631Z,92.60
2018-06-13T08:41:30.138Z,92.70
2018-06-13T08:43:59.476Z,92.60
2018-06-13T08:46:28.655Z,92.50
2018-06-13T08:48:58.056Z,92.60
2018-06-13T08:51:28.452Z,92.50
2018-06-13T08:53:57.714Z,92.40
2018-06-13T08:56:26.845Z,92.50
2018-06-13T08:58:56.020Z,92.90
2018-06-13T09:01:25.545Z,92.60
2018-06-13T09:03:54.607Z,92.30
2018-06-13T09:06:24.663Z,92.70
2018-06-13T09:08:53.766Z,92.50
2018-06-13T09:11:22.895Z,92.10
2018-06-13T09:13:52.315Z,92.10
2018-06-13T09:16:21.468Z,92.10
2018-06-13T09:18:51.281Z,92.30
2018-06-13T09:21:20.751Z,92.30
2018-06-13T09:23:49.893Z,92.00
2018-06-13T09:26:18.919Z,92.00
2018-06-13T09:28:48.192Z,92.10
2018-06-13T09:31:17.308Z,92.20
2018-06-13T09:33:46.447Z,91.90
2018-06-13T09:36:15.637Z,91.90
2018-06-13T09:38:44.728Z,91.70
2018-06-13T09:41:13.841Z,91.70
2018-06-13T09:43:42.979Z,91.70
2018-06-13T09:46:13.299Z,91.50
2018-06-13T09:48:42.585Z,91.70
2018-06-13T09:51:11.641Z,91.60
2018-06-13T09:53:40.910Z,91.50
2018-06-13T09:56:10.015Z,91.20
2018-06-13T09:58:44.259Z,90.80
2018-06-13T10:01:18.667Z,91.20
2018-06-13T10:03:47.812Z,91.00
2018-06-13T10:06:16.997Z,91.40
2018-06-13T10:08:46.295Z,91.20
2018-06-13T10:11:15.567Z,91.60
2018-06-13T10:13:44.618Z,91.50
2018-06-13T10:16:14.068Z,91.90
2018-06-13T10:18:43.395Z,91.60
2018-06-13T10:21:12.674Z,91.60
2018-06-13T10:23:43.171Z,91.50
2018-06-13T10:26:12.813Z,91.60
2018-06-13T10:28:41.948Z,91.40
2018-06-13T10:31:16.373Z,91.60
2018-06-13T10:33:45.612Z,91.50
2018-06-13T10:36:14.965Z,91.60
2018-06-13T10:38:45.108Z,91.60
2018-06-13T10:43:58.168Z,91.60
2018-06-13T10:46:27.683Z,91.50
2018-06-13T10:48:57.999Z,91.40
2018-06-13T10:51:27.467Z,91.60
2018-06-13T10:53:56.953Z,91.30
2018-06-13T10:56:26.238Z,91.50
2018-06-13T10:58:57.567Z,91.60
2018-06-13T11:01:26.829Z,91.80
2018-06-13T11:03:56.107Z,91.60
2018-06-13T11:06:27.257Z,91.60
2018-06-13T11:08:56.573Z,91.30
2018-06-13T11:11:26.200Z,91.30
2018-06-13T11:13:56.548Z,91.30
2018-06-13T11:16:25.817Z,91.40
2018-06-13T11:18:55.101Z,91.50
2018-06-13T11:21:24.252Z,91.40
2018-06-13T11:23:53.486Z,91.50
2018-06-13T11:26:22.578Z,91.30
2018-06-13T11:28:52.858Z,91.40
2018-06-13T11:31:22.021Z,91.40
2018-06-13T11:33:51.206Z,91.50
2018-06-13T11:36:20.452Z,91.30
2018-06-13T11:38:49.522Z,91.00
2018-06-13T11:41:19.298Z,90.70
2018-06-13T11:43:48.432Z,90.40
2018-06-13T11:46:17.646Z,90.70
2018-06-13T11:48:46.975Z,90.60
2018-06-13T11:51:18.740Z,90.00
2018-06-13T11:53:49.098Z,90.10
2018-06-13T11:56:18.420Z,90.10
2018-06-13T11:58:48.978Z,90.10
2018-06-13T12:01:19.364Z,90.20
2018-06-13T12:03:48.677Z,90.20
2018-06-13T12:06:28.925Z,90.20
2018-06-13T12:09:00.137Z,90.00
2018-06-13T12:11:31.703Z,90.30
2018-06-13T12:14:01.997Z,90.10
2018-06-13T12:16:31.607Z,90.40
2018-06-13T12:19:00.918Z,90.30
2018-06-13T12:21:30.348Z,90.20
2018-06-13T12:24:07.171Z,89.80
2018-06-13T12:26:36.795Z,89.80
2018-06-13T12:29:06.297Z,89.80
2018-06-13T12:31:35.722Z,89.50
2018-06-13T12:34:06.304Z,89.60
2018-06-13T12:36:36.137Z,89.40
2018-06-13T12:39:08.340Z,89.10
2018-06-13T12:41:37.896Z,88.90
2018-06-13T12:44:07.162Z,88.80
2018-06-13T12:46:37.250Z,88.20
2018-06-13T12:49:07.021Z,87.90
2018-06-13T12:51:36.708Z,88.00
2018-06-13T12:54:06.710Z,88.20
2018-06-13T12:56:36.144Z,88.10
2018-06-13T12:59:06.003Z,88.30
2018-06-13T13:01:35.449Z,89.30
2018-06-13T13:04:05.079Z,89.80
2018-06-13T13:06:34.551Z,89.40
2018-06-13T13:09:07.282Z,90.00
2018-06-13T13:11:36.833Z,90.10
2018-06-13T13:14:06.431Z,90.10
2018-06-13T13:16:40.759Z,90.20
2018-06-13T13:19:17.595Z,90.20
2018-06-13T13:21:47.287Z,90.40
2018-06-13T13:24:17.613Z,90.30
2018-06-13T13:26:46.982Z,90.20
2018-06-13T13:29:16.530Z,90.10
2018-06-13T13:31:46.636Z,90.00
2018-06-13T13:34:18.802Z,90.10
2018-06-13T13:36:48.253Z,90.10
2018-06-13T13:39:18.993Z,90.20
2018-06-13T13:41:55.041Z,90.30
2018-06-13T13:44:26.412Z,90.00
2018-06-13T13:46:56.700Z,89.10
2018-06-13T13:49:26.044Z,88.30
2018-06-13T13:51:55.720Z,88.80
2018-06-13T13:54:25.968Z,88.30
2018-06-13T13:56:55.209Z,87.30
2018-06-13T13:59:24.385Z,87.00
2018-06-13T14:01:53.656Z,86.10
2018-06-13T14:04:22.850Z,86.40
2018-06-13T14:06:52.160Z,85.90
2018-06-13T14:09:21.432Z,85.50
2018-06-13T14:11:50.659Z,85.00
2018-06-13T14:14:19.948Z,85.80
2018-06-13T14:16:49.199Z,86.20
2018-06-13T14:19:18.665Z,85.80
2018-06-13T14:21:48.002Z,85.70
2018-06-13T14:24:17.153Z,86.00
2018-06-13T14:26:46.540Z,86.70
2018-06-13T14:29:15.762Z,86.50
2018-06-13T14:31:44.960Z,86.00
2018-06-13T14:34:14.118Z,85.80
2018-06-13T14:36:43.498Z,85.90
2018-06-13T14:39:12.792Z,85.90
2018-06-13T14:41:42.363Z,85.30
2018-06-13T14:44:11.631Z,85.40
2018-06-13T14:46:40.855Z,85.70
2018-06-13T14:49:10.512Z,85.60
2018-06-13T14:51:39.839Z,85.90
2018-06-13T14:54:10.767Z,86.00
2018-06-13T14:56:40.156Z,86.60
2018-06-13T14:59:10.387Z,86.40
2018-06-13T15:01:39.813Z,86.80
2018-06-13T15:04:09.001Z,86.30
2018-06-13T15:06:38.533Z,87.00
2018-06-13T15:09:09.804Z,87.20
2018-06-13T15:11:40.003Z,87.70
2018-06-13T15:14:09.238Z,87.70
2018-06-13T15:16:38.489Z,87.50
2018-06-13T15:19:07.656Z,87.50
2018-06-13T15:21:36.749Z,88.00
2018-06-13T15:24:06.137Z,87.40
2018-06-13T15:26:36.191Z,88.10
2018-06-13T15:29:05.814Z,88.40
2018-06-13T15:31:35.256Z,89.00
2018-06-13T15:34:04.383Z,88.50
2018-06-13T15:36:33.582Z,88.80
2018-06-13T15:39:03.525Z,89.50
2018-06-13T15:41:32.790Z,89.60
2018-06-13T15:44:02.071Z,89.40
2018-06-13T15:46:31.297Z,89.20
2018-06-13T15:49:00.636Z,88.30
2018-06-13T15:51:30.629Z,89.00
2018-06-13T15:53:59.873Z,88.20
2018-06-13T15:56:29.045Z,88.90
2018-06-13T15:58:58.215Z,88.80
2018-06-13T16:01:27.338Z,89.30
2018-06-13T16:03:56.470Z,89.70
2018-06-13T16:06:25.637Z,89.30
2018-06-13T16:08:54.790Z,90.00
2018-06-13T16:11:24.103Z,90.30
2018-06-13T16:13:53.400Z,90.20
2018-06-13T16:16:22.686Z,90.30
2018-06-13T16:18:52.024Z,90.20
2018-06-13T16:21:21.702Z,89.90
2018-06-13T16:23:50.841Z,89.70
2018-06-13T16:26:21.039Z,89.90
2018-06-13T16:28:50.369Z,89.90
2018-06-13T16:31:19.567Z,89.80
2018-06-13T16:33:48.720Z,90.00
2018-06-13T16:36:17.878Z,89.50
2018-06-13T16:41:15.979Z,90.10
2018-06-13T16:43:45.195Z,90.10
2018-06-13T16:46:14.378Z,90.20
2018-06-13T16:48:43.519Z,90.40
2018-06-13T16:51:23.353Z,90.10
2018-06-13T16:54:11.311Z,90.00
2018-06-13T16:56:40.958Z,89.30
2018-06-13T16:59:10.064Z,90.00
2018-06-13T17:01:39.311Z,90.10
2018-06-13T17:04:09.419Z,89.60
2018-06-13T17:06:38.605Z,89.50
2018-06-13T17:09:08.411Z,89.70
2018-06-13T17:11:37.761Z,89.60
2018-06-13T17:14:07.182Z,89.80
2018-06-13T17:16:36.398Z,89.40
2018-06-13T17:19:05.774Z,89.70
2018-06-13T17:21:35.140Z,89.60
2018-06-13T17:24:06.123Z,89.00
2018-06-13T17:26:35.830Z,89.50
2018-06-13T17:29:05.218Z,89.50
2018-06-13T17:31:35.362Z,89.70
2018-06-13T17:34:04.566Z,90.20
2018-06-13T17:36:33.664Z,90.10
2018-06-13T17:39:02.949Z,89.30
2018-06-13T17:41:32.101Z,89.40
2018-06-13T17:44:01.321Z,88.80
2018-06-13T17:46:30.541Z,89.10
2018-06-13T17:48:59.645Z,89.30
2018-06-13T17:51:28.989Z,89.30
2018-06-13T17:53:58.067Z,88.80
2018-06-13T17:56:27.273Z,88.80
2018-06-13T17:58:56.471Z,89.00
2018-06-13T18:03:54.620Z,88.80
2018-06-13T18:06:23.666Z,88.70
2018-06-13T18:08:52.947Z,88.80
2018-06-13T18:11:23.090Z,88.90
2018-06-13T18:13:52.252Z,88.60
2018-06-13T18:16:21.359Z,88.80
2018-06-13T18:18:50.714Z,88.70
2018-06-13T18:21:20.978Z,87.80
2018-06-13T18:23:50.065Z,87.20
2018-06-13T18:26:19.246Z,86.80
2018-06-13T18:28:48.688Z,87.60
2018-06-13T18:31:17.881Z,86.80
2018-06-13T18:33:46.972Z,86.20
2018-06-13T18:36:16.612Z,87.30
2018-06-13T18:38:45.911Z,87.50
2018-06-13T18:41:15.156Z,87.70
2018-06-13T18:43:44.467Z,88.30
2018-06-13T18:46:13.538Z,88.60
2018-06-13T18:48:42.638Z,88.00
2018-06-13T18:51:11.830Z,88.00
2018-06-13T18:53:41.087Z,87.50
2018-06-13T18:56:10.239Z,87.30
2018-06-13T18:58:39.394Z,86.70
2018-06-13T19:01:08.612Z,86.80
2018-06-13T19:03:37.806Z,85.80
2018-06-13T19:06:06.910Z,85.80
2018-06-13T19:08:36.029Z,85.80
2018-06-13T19:11:05.228Z,86.20
2018-06-13T19:13:34.308Z,86.20
2018-06-13T19:16:03.491Z,85.40
2018-06-13T19:18:32.714Z,85.20
2018-06-13T19:21:01.815Z,85.30
2018-06-13T19:23:31.869Z,84.60
2018-06-13T19:26:00.889Z,85.00
2018-06-13T19:28:30.176Z,85.50
2018-06-13T19:31:00.261Z,85.20
2018-06-13T19:33:30.356Z,85.90
2018-06-13T19:35:59.464Z,85.90
2018-06-13T19:38:28.497Z,86.20
2018-06-13T19:40:57.609Z,86.10
2018-06-13T19:43:31.844Z,86.40
2018-06-13T19:46:01.998Z,86.40
2018-06-13T19:48:36.138Z,86.60
2018-06-13T19:51:05.517Z,87.30
2018-06-13T19:53:41.684Z,86.00
2018-06-13T19:56:12.745Z,86.00
2018-06-13T19:58:41.809Z,86.00
2018-06-13T20:01:11.074Z,86.00
2018-06-13T20:03:45.250Z,85.40
2018-06-13T20:06:14.517Z,85.60
2018-06-13T20:08:43.662Z,85.40
2018-06-13T20:11:13.168Z,84.70
2018-06-13T20:13:51.078Z,84.40
2018-06-13T20:16:36.383Z,84.30
2018-06-13T20:19:11.329Z,84.10
2018-06-13T20:21:40.715Z,84.20
2018-06-13T20:24:10.029Z,84.60
2018-06-13T20:26:44.316Z,84.90
2018-06-13T20:29:18.604Z,85.70
2018-06-13T20:31:48.165Z,86.00
2018-06-13T20:34:17.272Z,85.90
2018-06-13T20:36:46.549Z,85.30
2018-06-13T20:39:15.659Z,85.80
2018-06-13T20:41:44.897Z,86.30
2018-06-13T20:44:14.577Z,86.00
2018-06-13T20:46:43.749Z,85.50
2018-06-13T20:49:13.254Z,85.80
2018-06-13T20:51:42.417Z,86.00
2018-06-13T20:54:11.598Z,86.20
2018-06-13T20:56:40.826Z,86.10
2018-06-13T20:59:10.215Z,85.50
2018-06-13T21:01:39.344Z,85.10
2018-06-13T21:04:09.695Z,84.40
2018-06-13T21:06:38.816Z,84.60
2018-06-13T21:09:09.567Z,84.20
2018-06-13T21:11:41.350Z,84.80
2018-06-13T21:14:11.267Z,84.50
2018-06-13T21:16:40.775Z,84.60
2018-06-13T21:19:09.928Z,85.10
2018-06-13T21:21:39.106Z,84.40
2018-06-13T21:24:08.208Z,84.70
2018-06-13T21:26:37.596Z,84.60
2018-06-13T21:29:06.723Z,85.00
2018-06-13T21:31:36.153Z,84.70
2018-06-13T21:34:06.593Z,85.10
2018-06-13T21:36:35.787Z,85.20
2018-06-13T21:39:08.660Z,85.30
2018-06-13T21:41:37.770Z,85.40
2018-06-13T21:44:07.643Z,85.10
2018-06-13T21:46:36.887Z,85.10
2018-06-13T21:49:06.262Z,84.90
2018-06-13T21:51:35.430Z,85.80
2018-06-13T21:54:04.803Z,85.90
2018-06-13T21:56:34.076Z,86.00
2018-06-13T21:59:07.013Z,85.30
2018-06-13T22:01:37.141Z,85.30
2018-06-13T22:04:07.155Z,85.90
2018-06-13T22:06:36.338Z,85.90
2018-06-13T22:09:07.973Z,85.70
2018-06-13T22:11:42.177Z,86.00
2018-06-13T22:14:11.350Z,85.80
2018-06-13T22:16:40.485Z,85.80
2018-06-13T22:19:09.692Z,85.80
2018-06-13T22:21:38.751Z,85.50
2018-06-13T22:24:08.116Z,85.70
2018-06-13T22:26:37.423Z,86.00
2018-06-13T22:29:06.627Z,86.30
2018-06-13T22:31:36.082Z,86.30
2018-06-13T22:34:05.243Z,86.10
2018-06-13T22:36:34.411Z,86.20
2018-06-13T22:39:06.507Z,86.00
2018-06-13T22:41:35.711Z,85.90
2018-06-13T22:44:06.078Z,86.00
2018-06-13T22:46:35.165Z,85.60
2018-06-13T22:49:07.114Z,85.40
2018-06-13T22:51:36.459Z,85.50
2018-06-13T22:54:06.230Z,85.40
2018-06-13T22:56:35.478Z,85.50
2018-06-13T22:59:06.242Z,85.30
2018-06-13T23:01:35.407Z,85.20
2018-06-13T23:04:10.176Z,85.10
2018-06-13T23:06:40.896Z,85.80
2018-06-13T23:09:10.100Z,85.00
2018-06-13T23:11:39.165Z,84.90
2018-06-13T23:14:08.397Z,85.30
2018-06-13T23:16:37.492Z,85.20
2018-06-13T23:19:06.751Z,85.10
2018-06-13T23:21:36.019Z,84.60
2018-06-13T23:24:05.255Z,84.50
2018-06-13T23:26:35.409Z,84.50
2018-06-13T23:29:04.604Z,84.60
2018-06-13T23:31:33.788Z,85.00
2018-06-13T23:34:02.904Z,84.30
2018-06-13T23:36:33.008Z,84.30
2018-06-13T23:39:02.407Z,84.70
2018-06-13T23:41:31.894Z,84.70
2018-06-13T23:44:04.443Z,84.40
2018-06-13T23:46:33.851Z,85.00
2018-06-13T23:49:08.428Z,85.30
2018-06-13T23:51:38.534Z,85.30
2018-06-13T23:54:08.593Z,85.40
2018-06-13T23:56:39.797Z,85.20
2018-06-13T23:59:09.483Z,85.10
